Terminal Aerodrome Forecast
Issued by NWS

Home | Current Version | Previous Version | Text Only | Print | Product List | Glossary On
Versions: 1 2 3 4 5 6 7 8 9 10 11 12 13 14 15
515
FTUS43 KDLH 161120
TAFHIB
TAF
KHIB 161120Z 1612/1712 00000KT P6SM FEW002 FEW200
     FM161700 22008G16KT P6SM FEW200
     FM162000 21012G22KT P6SM FEW200
     FM170000 20007KT P6SM FEW250 WS020/26035KT
     FM170400 23004KT P6SM SKC=

USA.gov is the U.S. government's official web portal to all federal, state and local government web resources and services.